sensor_id;sensor_type;location;lat;lon;timestamp;P1;durP1;ratioP1;P2;durP2;ratioP2
59416;SDS011;45222;52.458;20.914;2023-12-20T00:00:21;11.70;;;9.70;;
59416;SDS011;45222;52.458;20.914;2023-12-20T00:04:29;13.30;;;10.70;;
59416;SDS011;45222;52.458;20.914;2023-12-20T00:12:20;10.40;;;8.00;;
59416;SDS011;45222;52.458;20.914;2023-12-20T00:16:09;11.90;;;8.80;;
59416;SDS011;45222;52.458;20.914;2023-12-20T00:19:57;10.50;;;8.10;;
59416;SDS011;45222;52.458;20.914;2023-12-20T00:23:45;10.20;;;7.50;;
59416;SDS011;45222;52.458;20.914;2023-12-20T00:27:33;10.00;;;7.60;;
59416;SDS011;45222;52.458;20.914;2023-12-20T00:31:21;14.10;;;9.80;;
59416;SDS011;45222;52.458;20.914;2023-12-20T00:35:08;10.60;;;8.20;;
59416;SDS011;45222;52.458;20.914;2023-12-20T00:38:56;11.70;;;9.20;;
59416;SDS011;45222;52.458;20.914;2023-12-20T00:42:44;11.50;;;8.80;;
59416;SDS011;45222;52.458;20.914;2023-12-20T00:46:33;10.50;;;8.10;;
59416;SDS011;45222;52.458;20.914;2023-12-20T00:50:20;11.00;;;7.60;;
59416;SDS011;45222;52.458;20.914;2023-12-20T00:54:09;10.70;;;7.70;;
59416;SDS011;45222;52.458;20.914;2023-12-20T00:57:57;9.90;;;8.10;;
59416;SDS011;45222;52.458;20.914;2023-12-20T01:01:45;10.70;;;7.70;;
59416;SDS011;45222;52.458;20.914;2023-12-20T01:05:33;9.80;;;7.30;;
59416;SDS011;45222;52.458;20.914;2023-12-20T01:09:21;9.90;;;7.50;;
59416;SDS011;45222;52.458;20.914;2023-12-20T01:13:11;10.70;;;8.20;;
59416;SDS011;45222;52.458;20.914;2023-12-20T01:16:59;10.40;;;8.50;;
59416;SDS011;45222;52.458;20.914;2023-12-20T01:20:47;12.00;;;9.10;;
59416;SDS011;45222;52.458;20.914;2023-12-20T01:24:35;11.50;;;8.10;;
59416;SDS011;45222;52.458;20.914;2023-12-20T01:28:23;11.00;;;8.10;;
59416;SDS011;45222;52.458;20.914;2023-12-20T01:32:11;10.00;;;7.60;;
59416;SDS011;45222;52.458;20.914;2023-12-20T01:35:58;10.90;;;7.80;;
59416;SDS011;45222;52.458;20.914;2023-12-20T01:39:47;10.00;;;7.30;;
59416;SDS011;45222;52.458;20.914;2023-12-20T01:43:35;9.70;;;7.40;;
59416;SDS011;45222;52.458;20.914;2023-12-20T01:47:23;10.50;;;7.90;;
59416;SDS011;45222;52.458;20.914;2023-12-20T01:51:11;10.90;;;8.00;;
59416;SDS011;45222;52.458;20.914;2023-12-20T01:55:00;9.90;;;7.90;;
59416;SDS011;45222;52.458;20.914;2023-12-20T01:58:55;11.10;;;7.60;;
59416;SDS011;45222;52.458;20.914;2023-12-20T02:02:44;9.70;;;7.60;;
59416;SDS011;45222;52.458;20.914;2023-12-20T02:06:32;10.10;;;7.00;;
59416;SDS011;45222;52.458;20.914;2023-12-20T02:10:21;9.40;;;7.20;;
59416;SDS011;45222;52.458;20.914;2023-12-20T02:14:10;10.10;;;7.60;;
59416;SDS011;45222;52.458;20.914;2023-12-20T02:17:58;9.60;;;6.90;;
59416;SDS011;45222;52.458;20.914;2023-12-20T02:21:46;9.00;;;6.80;;
59416;SDS011;45222;52.458;20.914;2023-12-20T02:25:34;9.90;;;7.60;;
59416;SDS011;45222;52.458;20.914;2023-12-20T02:29:22;9.70;;;7.90;;
59416;SDS011;45222;52.458;20.914;2023-12-20T02:33:10;10.10;;;7.80;;
59416;SDS011;45222;52.458;20.914;2023-12-20T02:37:00;10.60;;;7.90;;
59416;SDS011;45222;52.458;20.914;2023-12-20T02:40:47;9.90;;;7.20;;
59416;SDS011;45222;52.458;20.914;2023-12-20T02:44:35;8.60;;;6.70;;
59416;SDS011;45222;52.458;20.914;2023-12-20T02:48:23;9.20;;;6.30;;
59416;SDS011;45222;52.458;20.914;2023-12-20T02:52:11;10.30;;;7.40;;
59416;SDS011;45222;52.458;20.914;2023-12-20T02:55:59;10.80;;;7.70;;
59416;SDS011;45222;52.458;20.914;2023-12-20T02:59:47;8.80;;;6.20;;
59416;SDS011;45222;52.458;20.914;2023-12-20T03:03:35;9.90;;;6.60;;
59416;SDS011;45222;52.458;20.914;2023-12-20T03:07:25;10.50;;;7.20;;
59416;SDS011;45222;52.458;20.914;2023-12-20T03:11:13;9.30;;;6.60;;
59416;SDS011;45222;52.458;20.914;2023-12-20T03:15:01;9.40;;;6.80;;
59416;SDS011;45222;52.458;20.914;2023-12-20T03:18:50;9.40;;;6.20;;
59416;SDS011;45222;52.458;20.914;2023-12-20T03:22:38;10.00;;;7.10;;
59416;SDS011;45222;52.458;20.914;2023-12-20T03:26:26;9.90;;;7.50;;
59416;SDS011;45222;52.458;20.914;2023-12-20T03:30:14;9.70;;;6.90;;
59416;SDS011;45222;52.458;20.914;2023-12-20T03:34:02;9.60;;;7.30;;
59416;SDS011;45222;52.458;20.914;2023-12-20T03:37:51;9.90;;;7.20;;
59416;SDS011;45222;52.458;20.914;2023-12-20T03:41:38;8.40;;;6.10;;
59416;SDS011;45222;52.458;20.914;2023-12-20T03:45:26;10.20;;;6.70;;
59416;SDS011;45222;52.458;20.914;2023-12-20T03:49:14;9.50;;;7.00;;
59416;SDS011;45222;52.458;20.914;2023-12-20T03:53:02;10.00;;;8.00;;
59416;SDS011;45222;52.458;20.914;2023-12-20T03:56:50;10.50;;;8.00;;
59416;SDS011;45222;52.458;20.914;2023-12-20T04:00:38;9.20;;;7.00;;
59416;SDS011;45222;52.458;20.914;2023-12-20T04:04:26;9.10;;;6.80;;
59416;SDS011;45222;52.458;20.914;2023-12-20T04:08:14;8.60;;;6.60;;
59416;SDS011;45222;52.458;20.914;2023-12-20T04:12:02;8.70;;;6.30;;
59416;SDS011;45222;52.458;20.914;2023-12-20T04:19:37;8.80;;;7.10;;
59416;SDS011;45222;52.458;20.914;2023-12-20T04:23:25;9.30;;;6.80;;
59416;SDS011;45222;52.458;20.914;2023-12-20T04:27:13;8.90;;;6.20;;
59416;SDS011;45222;52.458;20.914;2023-12-20T04:31:01;9.20;;;5.90;;
59416;SDS011;45222;52.458;20.914;2023-12-20T04:34:49;7.50;;;5.00;;
59416;SDS011;45222;52.458;20.914;2023-12-20T04:38:37;7.50;;;5.20;;
59416;SDS011;45222;52.458;20.914;2023-12-20T04:42:25;7.40;;;5.00;;
59416;SDS011;45222;52.458;20.914;2023-12-20T04:46:13;7.60;;;4.90;;
59416;SDS011;45222;52.458;20.914;2023-12-20T04:50:00;8.70;;;6.20;;
59416;SDS011;45222;52.458;20.914;2023-12-20T04:53:49;8.10;;;5.70;;
59416;SDS011;45222;52.458;20.914;2023-12-20T04:57:37;8.40;;;5.80;;
59416;SDS011;45222;52.458;20.914;2023-12-20T05:01:25;8.40;;;5.20;;
59416;SDS011;45222;52.458;20.914;2023-12-20T05:05:14;7.00;;;4.70;;
59416;SDS011;45222;52.458;20.914;2023-12-20T05:09:02;8.40;;;5.60;;
59416;SDS011;45222;52.458;20.914;2023-12-20T05:12:51;8.80;;;5.80;;
59416;SDS011;45222;52.458;20.914;2023-12-20T05:16:39;7.70;;;5.00;;
59416;SDS011;45222;52.458;20.914;2023-12-20T05:20:26;7.30;;;5.00;;
59416;SDS011;45222;52.458;20.914;2023-12-20T05:24:14;7.60;;;4.40;;
59416;SDS011;45222;52.458;20.914;2023-12-20T05:28:02;7.00;;;4.10;;
59416;SDS011;45222;52.458;20.914;2023-12-20T05:31:51;7.00;;;4.50;;
59416;SDS011;45222;52.458;20.914;2023-12-20T05:35:39;7.00;;;4.40;;
59416;SDS011;45222;52.458;20.914;2023-12-20T05:39:27;6.70;;;4.40;;
59416;SDS011;45222;52.458;20.914;2023-12-20T05:43:15;7.00;;;4.90;;
59416;SDS011;45222;52.458;20.914;2023-12-20T05:47:04;8.00;;;5.50;;
59416;SDS011;45222;52.458;20.914;2023-12-20T05:50:52;8.00;;;5.50;;
59416;SDS011;45222;52.458;20.914;2023-12-20T05:54:39;7.40;;;4.80;;
59416;SDS011;45222;52.458;20.914;2023-12-20T05:58:27;6.70;;;4.90;;
59416;SDS011;45222;52.458;20.914;2023-12-20T06:02:15;8.00;;;5.00;;
59416;SDS011;45222;52.458;20.914;2023-12-20T06:06:05;7.20;;;4.90;;
59416;SDS011;45222;52.458;20.914;2023-12-20T06:09:54;6.90;;;5.00;;
59416;SDS011;45222;52.458;20.914;2023-12-20T06:13:42;7.70;;;5.00;;
59416;SDS011;45222;52.458;20.914;2023-12-20T06:17:29;7.90;;;6.00;;
59416;SDS011;45222;52.458;20.914;2023-12-20T06:21:18;7.80;;;5.20;;
59416;SDS011;45222;52.458;20.914;2023-12-20T06:25:06;7.20;;;4.90;;
59416;SDS011;45222;52.458;20.914;2023-12-20T06:28:54;8.00;;;4.90;;
59416;SDS011;45222;52.458;20.914;2023-12-20T06:32:42;8.70;;;5.70;;
59416;SDS011;45222;52.458;20.914;2023-12-20T06:40:18;7.10;;;4.60;;
59416;SDS011;45222;52.458;20.914;2023-12-20T06:44:06;8.70;;;4.90;;
59416;SDS011;45222;52.458;20.914;2023-12-20T06:47:54;7.50;;;4.80;;
59416;SDS011;45222;52.458;20.914;2023-12-20T06:51:41;7.70;;;5.60;;
59416;SDS011;45222;52.458;20.914;2023-12-20T06:55:29;8.60;;;5.30;;
59416;SDS011;45222;52.458;20.914;2023-12-20T06:59:17;7.10;;;5.20;;
59416;SDS011;45222;52.458;20.914;2023-12-20T07:03:05;7.30;;;4.80;;
59416;SDS011;45222;52.458;20.914;2023-12-20T07:06:53;7.30;;;5.10;;
59416;SDS011;45222;52.458;20.914;2023-12-20T07:10:44;7.60;;;5.10;;
59416;SDS011;45222;52.458;20.914;2023-12-20T07:14:32;6.30;;;4.30;;
59416;SDS011;45222;52.458;20.914;2023-12-20T07:18:20;7.20;;;5.30;;
59416;SDS011;45222;52.458;20.914;2023-12-20T07:22:08;8.70;;;6.00;;
59416;SDS011;45222;52.458;20.914;2023-12-20T07:25:56;7.80;;;5.50;;
59416;SDS011;45222;52.458;20.914;2023-12-20T07:29:44;7.50;;;5.20;;
59416;SDS011;45222;52.458;20.914;2023-12-20T07:33:32;7.90;;;5.90;;
59416;SDS011;45222;52.458;20.914;2023-12-20T07:37:20;6.90;;;5.10;;
59416;SDS011;45222;52.458;20.914;2023-12-20T07:41:08;8.20;;;4.90;;
59416;SDS011;45222;52.458;20.914;2023-12-20T07:44:57;7.70;;;5.40;;
59416;SDS011;45222;52.458;20.914;2023-12-20T07:48:45;7.90;;;5.70;;
59416;SDS011;45222;52.458;20.914;2023-12-20T07:52:33;7.80;;;5.40;;
59416;SDS011;45222;52.458;20.914;2023-12-20T07:56:21;7.40;;;5.20;;
59416;SDS011;45222;52.458;20.914;2023-12-20T08:00:10;7.60;;;5.50;;
59416;SDS011;45222;52.458;20.914;2023-12-20T08:03:58;7.00;;;4.80;;
59416;SDS011;45222;52.458;20.914;2023-12-20T08:07:47;12.20;;;10.10;;
59416;SDS011;45222;52.458;20.914;2023-12-20T08:11:35;9.40;;;6.70;;
59416;SDS011;45222;52.458;20.914;2023-12-20T08:15:23;9.10;;;5.90;;
59416;SDS011;45222;52.458;20.914;2023-12-20T08:19:10;8.40;;;5.80;;
59416;SDS011;45222;52.458;20.914;2023-12-20T08:22:58;7.00;;;5.20;;
59416;SDS011;45222;52.458;20.914;2023-12-20T08:26:46;7.90;;;5.30;;
59416;SDS011;45222;52.458;20.914;2023-12-20T08:30:34;6.40;;;4.70;;
59416;SDS011;45222;52.458;20.914;2023-12-20T08:34:22;7.00;;;4.70;;
59416;SDS011;45222;52.458;20.914;2023-12-20T08:38:10;6.70;;;4.60;;
59416;SDS011;45222;52.458;20.914;2023-12-20T08:41:59;6.80;;;4.70;;
59416;SDS011;45222;52.458;20.914;2023-12-20T08:45:47;7.30;;;4.80;;
59416;SDS011;45222;52.458;20.914;2023-12-20T08:49:35;7.20;;;5.10;;
59416;SDS011;45222;52.458;20.914;2023-12-20T08:53:24;8.60;;;6.50;;
59416;SDS011;45222;52.458;20.914;2023-12-20T08:57:11;7.20;;;4.70;;
59416;SDS011;45222;52.458;20.914;2023-12-20T09:00:59;7.20;;;4.90;;
59416;SDS011;45222;52.458;20.914;2023-12-20T09:04:47;6.00;;;4.00;;
59416;SDS011;45222;52.458;20.914;2023-12-20T09:08:35;6.70;;;4.40;;
59416;SDS011;45222;52.458;20.914;2023-12-20T09:12:23;6.10;;;3.80;;
59416;SDS011;45222;52.458;20.914;2023-12-20T09:16:12;7.30;;;4.20;;
59416;SDS011;45222;52.458;20.914;2023-12-20T09:20:01;7.30;;;4.70;;
59416;SDS011;45222;52.458;20.914;2023-12-20T09:23:51;6.30;;;4.30;;
59416;SDS011;45222;52.458;20.914;2023-12-20T09:27:39;7.00;;;4.40;;
59416;SDS011;45222;52.458;20.914;2023-12-20T09:31:27;6.30;;;3.70;;
59416;SDS011;45222;52.458;20.914;2023-12-20T09:35:15;6.30;;;3.90;;
59416;SDS011;45222;52.458;20.914;2023-12-20T09:39:03;6.10;;;3.60;;
59416;SDS011;45222;52.458;20.914;2023-12-20T09:42:54;5.80;;;3.60;;
59416;SDS011;45222;52.458;20.914;2023-12-20T09:46:45;5.60;;;3.40;;
59416;SDS011;45222;52.458;20.914;2023-12-20T09:50:38;7.00;;;4.30;;
59416;SDS011;45222;52.458;20.914;2023-12-20T09:54:28;6.70;;;4.30;;
59416;SDS011;45222;52.458;20.914;2023-12-20T09:58:16;6.50;;;4.30;;
59416;SDS011;45222;52.458;20.914;2023-12-20T10:02:04;6.80;;;4.30;;
59416;SDS011;45222;52.458;20.914;2023-12-20T10:05:59;5.90;;;4.00;;
59416;SDS011;45222;52.458;20.914;2023-12-20T10:09:48;6.20;;;3.90;;
59416;SDS011;45222;52.458;20.914;2023-12-20T10:13:40;7.50;;;4.10;;
59416;SDS011;45222;52.458;20.914;2023-12-20T10:17:29;5.90;;;3.70;;
59416;SDS011;45222;52.458;20.914;2023-12-20T10:21:17;6.90;;;4.80;;
59416;SDS011;45222;52.458;20.914;2023-12-20T10:25:07;9.00;;;6.60;;
59416;SDS011;45222;52.458;20.914;2023-12-20T10:28:55;10.50;;;5.70;;
59416;SDS011;45222;52.458;20.914;2023-12-20T10:32:46;7.90;;;5.70;;
59416;SDS011;45222;52.458;20.914;2023-12-20T10:36:34;7.90;;;5.10;;
59416;SDS011;45222;52.458;20.914;2023-12-20T10:40:21;8.40;;;5.20;;
59416;SDS011;45222;52.458;20.914;2023-12-20T10:44:12;7.80;;;5.40;;
59416;SDS011;45222;52.458;20.914;2023-12-20T10:51:48;9.10;;;6.60;;
59416;SDS011;45222;52.458;20.914;2023-12-20T10:55:39;9.80;;;6.30;;
59416;SDS011;45222;52.458;20.914;2023-12-20T10:59:27;9.20;;;5.70;;
59416;SDS011;45222;52.458;20.914;2023-12-20T11:03:19;8.30;;;6.00;;
59416;SDS011;45222;52.458;20.914;2023-12-20T11:07:11;8.10;;;5.80;;
59416;SDS011;45222;52.458;20.914;2023-12-20T11:11:09;8.60;;;5.80;;
59416;SDS011;45222;52.458;20.914;2023-12-20T11:15:05;8.50;;;5.80;;
59416;SDS011;45222;52.458;20.914;2023-12-20T11:18:54;9.70;;;6.70;;
59416;SDS011;45222;52.458;20.914;2023-12-20T11:22:52;11.20;;;7.60;;
59416;SDS011;45222;52.458;20.914;2023-12-20T11:30:14;12.00;;;7.20;;
59416;SDS011;45222;52.458;20.914;2023-12-20T11:34:13;9.60;;;6.90;;
59416;SDS011;45222;52.458;20.914;2023-12-20T11:38:03;10.40;;;7.80;;
59416;SDS011;45222;52.458;20.914;2023-12-20T11:41:53;10.80;;;8.00;;
59416;SDS011;45222;52.458;20.914;2023-12-20T11:45:49;9.50;;;7.30;;
59416;SDS011;45222;52.458;20.914;2023-12-20T11:49:37;11.10;;;7.00;;
59416;SDS011;45222;52.458;20.914;2023-12-20T11:53:25;9.90;;;8.30;;
59416;SDS011;45222;52.458;20.914;2023-12-20T11:57:13;11.20;;;7.30;;
59416;SDS011;45222;52.458;20.914;2023-12-20T12:01:02;9.50;;;6.70;;
59416;SDS011;45222;52.458;20.914;2023-12-20T12:04:52;7.80;;;5.30;;
59416;SDS011;45222;52.458;20.914;2023-12-20T12:08:41;8.60;;;5.10;;
59416;SDS011;45222;52.458;20.914;2023-12-20T12:12:29;7.80;;;5.20;;
59416;SDS011;45222;52.458;20.914;2023-12-20T12:16:18;10.00;;;6.30;;
59416;SDS011;45222;52.458;20.914;2023-12-20T12:20:07;13.00;;;8.80;;
59416;SDS011;45222;52.458;20.914;2023-12-20T12:24:05;9.50;;;5.30;;
59416;SDS011;45222;52.458;20.914;2023-12-20T12:27:54;8.50;;;4.90;;
59416;SDS011;45222;52.458;20.914;2023-12-20T12:31:43;7.10;;;4.90;;
59416;SDS011;45222;52.458;20.914;2023-12-20T12:35:31;8.30;;;5.50;;
59416;SDS011;45222;52.458;20.914;2023-12-20T12:39:20;9.90;;;6.00;;
59416;SDS011;45222;52.458;20.914;2023-12-20T12:43:09;11.70;;;7.60;;
59416;SDS011;45222;52.458;20.914;2023-12-20T12:46:57;9.80;;;6.30;;
59416;SDS011;45222;52.458;20.914;2023-12-20T12:50:46;9.40;;;6.40;;
59416;SDS011;45222;52.458;20.914;2023-12-20T12:54:37;10.50;;;7.30;;
59416;SDS011;45222;52.458;20.914;2023-12-20T12:58:25;33.40;;;24.80;;
59416;SDS011;45222;52.458;20.914;2023-12-20T13:02:13;48.80;;;36.70;;
59416;SDS011;45222;52.458;20.914;2023-12-20T13:06:01;20.50;;;13.50;;
59416;SDS011;45222;52.458;20.914;2023-12-20T13:09:50;14.80;;;11.20;;
59416;SDS011;45222;52.458;20.914;2023-12-20T13:13:39;12.40;;;6.60;;
59416;SDS011;45222;52.458;20.914;2023-12-20T13:17:27;41.70;;;31.20;;
59416;SDS011;45222;52.458;20.914;2023-12-20T13:21:15;12.70;;;8.50;;
59416;SDS011;45222;52.458;20.914;2023-12-20T13:25:03;13.50;;;8.50;;
59416;SDS011;45222;52.458;20.914;2023-12-20T13:28:51;16.80;;;11.20;;
59416;SDS011;45222;52.458;20.914;2023-12-20T13:32:39;24.70;;;20.10;;
59416;SDS011;45222;52.458;20.914;2023-12-20T13:36:27;15.10;;;8.30;;
59416;SDS011;45222;52.458;20.914;2023-12-20T13:40:15;12.60;;;7.00;;
59416;SDS011;45222;52.458;20.914;2023-12-20T13:44:03;16.40;;;7.60;;
59416;SDS011;45222;52.458;20.914;2023-12-20T13:47:51;28.70;;;21.90;;
59416;SDS011;45222;52.458;20.914;2023-12-20T13:51:39;12.60;;;8.00;;
59416;SDS011;45222;52.458;20.914;2023-12-20T13:55:27;17.50;;;14.30;;
59416;SDS011;45222;52.458;20.914;2023-12-20T13:59:15;11.20;;;6.50;;
59416;SDS011;45222;52.458;20.914;2023-12-20T14:03:03;13.10;;;9.40;;
59416;SDS011;45222;52.458;20.914;2023-12-20T14:06:52;9.40;;;5.70;;
59416;SDS011;45222;52.458;20.914;2023-12-20T14:10:40;10.80;;;5.50;;
59416;SDS011;45222;52.458;20.914;2023-12-20T14:14:28;11.40;;;7.30;;
59416;SDS011;45222;52.458;20.914;2023-12-20T14:18:16;24.10;;;19.20;;
59416;SDS011;45222;52.458;20.914;2023-12-20T14:22:05;16.00;;;11.80;;
59416;SDS011;45222;52.458;20.914;2023-12-20T14:25:52;19.80;;;16.40;;
59416;SDS011;45222;52.458;20.914;2023-12-20T14:29:43;19.10;;;13.30;;
59416;SDS011;45222;52.458;20.914;2023-12-20T14:33:31;20.60;;;14.80;;
59416;SDS011;45222;52.458;20.914;2023-12-20T14:37:19;18.50;;;13.70;;
59416;SDS011;45222;52.458;20.914;2023-12-20T14:41:07;17.00;;;11.50;;
59416;SDS011;45222;52.458;20.914;2023-12-20T14:44:55;17.50;;;13.20;;
59416;SDS011;45222;52.458;20.914;2023-12-20T14:48:43;20.90;;;11.50;;
59416;SDS011;45222;52.458;20.914;2023-12-20T14:52:31;15.30;;;10.70;;
59416;SDS011;45222;52.458;20.914;2023-12-20T14:56:20;11.00;;;7.60;;
59416;SDS011;45222;52.458;20.914;2023-12-20T15:04:00;15.30;;;8.40;;
59416;SDS011;45222;52.458;20.914;2023-12-20T15:07:49;10.40;;;6.80;;
59416;SDS011;45222;52.458;20.914;2023-12-20T15:11:37;18.80;;;12.00;;
59416;SDS011;45222;52.458;20.914;2023-12-20T15:15:25;11.50;;;6.50;;
59416;SDS011;45222;52.458;20.914;2023-12-20T15:19:14;13.00;;;8.00;;
59416;SDS011;45222;52.458;20.914;2023-12-20T15:23:02;11.90;;;6.80;;
59416;SDS011;45222;52.458;20.914;2023-12-20T15:26:52;11.30;;;5.70;;
59416;SDS011;45222;52.458;20.914;2023-12-20T15:30:41;13.50;;;8.50;;
59416;SDS011;45222;52.458;20.914;2023-12-20T15:34:29;13.20;;;8.10;;
59416;SDS011;45222;52.458;20.914;2023-12-20T15:38:17;11.50;;;7.00;;
59416;SDS011;45222;52.458;20.914;2023-12-20T15:42:05;10.60;;;5.20;;
59416;SDS011;45222;52.458;20.914;2023-12-20T15:45:52;9.90;;;5.10;;
59416;SDS011;45222;52.458;20.914;2023-12-20T15:49:41;12.10;;;6.50;;
59416;SDS011;45222;52.458;20.914;2023-12-20T15:53:30;12.40;;;7.00;;
59416;SDS011;45222;52.458;20.914;2023-12-20T15:57:18;10.30;;;5.40;;
59416;SDS011;45222;52.458;20.914;2023-12-20T16:01:06;10.90;;;5.20;;
59416;SDS011;45222;52.458;20.914;2023-12-20T16:04:54;10.30;;;6.50;;
59416;SDS011;45222;52.458;20.914;2023-12-20T16:08:42;11.10;;;6.40;;
59416;SDS011;45222;52.458;20.914;2023-12-20T16:12:30;10.90;;;5.50;;
59416;SDS011;45222;52.458;20.914;2023-12-20T16:16:17;10.30;;;5.20;;
59416;SDS011;45222;52.458;20.914;2023-12-20T16:20:07;10.50;;;5.20;;
59416;SDS011;45222;52.458;20.914;2023-12-20T16:23:56;10.30;;;5.90;;
59416;SDS011;45222;52.458;20.914;2023-12-20T16:27:43;11.10;;;5.80;;
59416;SDS011;45222;52.458;20.914;2023-12-20T16:35:19;10.00;;;4.90;;
59416;SDS011;45222;52.458;20.914;2023-12-20T16:39:07;12.10;;;5.90;;
59416;SDS011;45222;52.458;20.914;2023-12-20T16:42:54;12.50;;;5.90;;
59416;SDS011;45222;52.458;20.914;2023-12-20T16:46:43;9.10;;;4.50;;
59416;SDS011;45222;52.458;20.914;2023-12-20T16:50:31;9.70;;;4.80;;
59416;SDS011;45222;52.458;20.914;2023-12-20T16:54:19;10.70;;;5.60;;
59416;SDS011;45222;52.458;20.914;2023-12-20T16:58:07;13.40;;;7.70;;
59416;SDS011;45222;52.458;20.914;2023-12-20T17:02:02;9.30;;;5.20;;
59416;SDS011;45222;52.458;20.914;2023-12-20T17:05:51;9.70;;;5.40;;
59416;SDS011;45222;52.458;20.914;2023-12-20T17:09:39;12.10;;;5.70;;
59416;SDS011;45222;52.458;20.914;2023-12-20T17:13:29;10.90;;;6.50;;
59416;SDS011;45222;52.458;20.914;2023-12-20T17:17:18;13.10;;;7.50;;
59416;SDS011;45222;52.458;20.914;2023-12-20T17:21:06;10.30;;;5.80;;
59416;SDS011;45222;52.458;20.914;2023-12-20T17:24:54;13.10;;;6.80;;
59416;SDS011;45222;52.458;20.914;2023-12-20T17:28:42;13.30;;;7.50;;
59416;SDS011;45222;52.458;20.914;2023-12-20T17:32:30;11.50;;;5.80;;
59416;SDS011;45222;52.458;20.914;2023-12-20T17:36:22;11.80;;;5.90;;
59416;SDS011;45222;52.458;20.914;2023-12-20T17:40:10;10.90;;;6.40;;
59416;SDS011;45222;52.458;20.914;2023-12-20T17:43:59;10.90;;;6.30;;
59416;SDS011;45222;52.458;20.914;2023-12-20T17:47:47;11.10;;;6.20;;
59416;SDS011;45222;52.458;20.914;2023-12-20T17:51:35;10.70;;;6.10;;
59416;SDS011;45222;52.458;20.914;2023-12-20T17:55:23;12.10;;;5.90;;
59416;SDS011;45222;52.458;20.914;2023-12-20T17:59:11;13.10;;;6.10;;
59416;SDS011;45222;52.458;20.914;2023-12-20T18:02:59;9.90;;;6.00;;
59416;SDS011;45222;52.458;20.914;2023-12-20T18:06:47;10.20;;;5.60;;
59416;SDS011;45222;52.458;20.914;2023-12-20T18:10:35;11.00;;;5.40;;
59416;SDS011;45222;52.458;20.914;2023-12-20T18:14:23;11.30;;;5.30;;
59416;SDS011;45222;52.458;20.914;2023-12-20T18:18:11;9.90;;;5.20;;
59416;SDS011;45222;52.458;20.914;2023-12-20T18:21:58;11.10;;;5.60;;
59416;SDS011;45222;52.458;20.914;2023-12-20T18:25:46;14.10;;;8.20;;
59416;SDS011;45222;52.458;20.914;2023-12-20T18:29:38;11.60;;;6.70;;
59416;SDS011;45222;52.458;20.914;2023-12-20T18:33:26;10.30;;;5.80;;
59416;SDS011;45222;52.458;20.914;2023-12-20T18:37:18;11.80;;;6.10;;
59416;SDS011;45222;52.458;20.914;2023-12-20T18:41:05;11.10;;;5.40;;
59416;SDS011;45222;52.458;20.914;2023-12-20T18:44:54;10.20;;;5.70;;
59416;SDS011;45222;52.458;20.914;2023-12-20T18:48:41;12.00;;;5.50;;
59416;SDS011;45222;52.458;20.914;2023-12-20T18:52:29;10.60;;;5.30;;
59416;SDS011;45222;52.458;20.914;2023-12-20T18:56:17;10.40;;;5.60;;
59416;SDS011;45222;52.458;20.914;2023-12-20T19:00:07;10.70;;;5.40;;
59416;SDS011;45222;52.458;20.914;2023-12-20T19:03:56;11.20;;;5.90;;
59416;SDS011;45222;52.458;20.914;2023-12-20T19:07:45;10.70;;;5.80;;
59416;SDS011;45222;52.458;20.914;2023-12-20T19:11:33;12.80;;;8.70;;
59416;SDS011;45222;52.458;20.914;2023-12-20T19:15:21;10.40;;;5.40;;
59416;SDS011;45222;52.458;20.914;2023-12-20T19:19:09;9.80;;;4.80;;
59416;SDS011;45222;52.458;20.914;2023-12-20T19:22:57;9.50;;;4.60;;
59416;SDS011;45222;52.458;20.914;2023-12-20T19:26:45;8.60;;;4.20;;
59416;SDS011;45222;52.458;20.914;2023-12-20T19:30:33;9.40;;;4.80;;
59416;SDS011;45222;52.458;20.914;2023-12-20T19:34:21;8.70;;;4.00;;
59416;SDS011;45222;52.458;20.914;2023-12-20T19:38:09;8.20;;;4.40;;
59416;SDS011;45222;52.458;20.914;2023-12-20T19:41:56;8.30;;;3.90;;
59416;SDS011;45222;52.458;20.914;2023-12-20T19:45:44;9.50;;;4.80;;
59416;SDS011;45222;52.458;20.914;2023-12-20T19:49:32;8.20;;;3.90;;
59416;SDS011;45222;52.458;20.914;2023-12-20T19:53:20;7.20;;;3.20;;
59416;SDS011;45222;52.458;20.914;2023-12-20T19:57:10;8.20;;;3.40;;
59416;SDS011;45222;52.458;20.914;2023-12-20T20:00:58;7.10;;;2.90;;
59416;SDS011;45222;52.458;20.914;2023-12-20T20:04:46;7.20;;;3.20;;
59416;SDS011;45222;52.458;20.914;2023-12-20T20:08:34;6.70;;;2.90;;
59416;SDS011;45222;52.458;20.914;2023-12-20T20:12:22;8.60;;;3.00;;
59416;SDS011;45222;52.458;20.914;2023-12-20T20:16:10;7.90;;;3.10;;
59416;SDS011;45222;52.458;20.914;2023-12-20T20:19:58;7.10;;;3.40;;
59416;SDS011;45222;52.458;20.914;2023-12-20T20:23:46;5.80;;;2.30;;
59416;SDS011;45222;52.458;20.914;2023-12-20T20:27:34;6.70;;;2.90;;
59416;SDS011;45222;52.458;20.914;2023-12-20T20:31:22;8.10;;;3.10;;
59416;SDS011;45222;52.458;20.914;2023-12-20T20:35:12;9.60;;;3.70;;
59416;SDS011;45222;52.458;20.914;2023-12-20T20:39:00;6.30;;;2.90;;
59416;SDS011;45222;52.458;20.914;2023-12-20T20:42:48;6.60;;;2.80;;
59416;SDS011;45222;52.458;20.914;2023-12-20T20:46:36;6.30;;;3.10;;
59416;SDS011;45222;52.458;20.914;2023-12-20T20:50:24;6.50;;;3.00;;
59416;SDS011;45222;52.458;20.914;2023-12-20T20:54:12;7.30;;;3.40;;
59416;SDS011;45222;52.458;20.914;2023-12-20T20:58:00;6.20;;;3.10;;
59416;SDS011;45222;52.458;20.914;2023-12-20T21:01:48;6.30;;;2.80;;
59416;SDS011;45222;52.458;20.914;2023-12-20T21:05:35;6.20;;;2.70;;
59416;SDS011;45222;52.458;20.914;2023-12-20T21:09:24;6.30;;;2.90;;
59416;SDS011;45222;52.458;20.914;2023-12-20T21:13:13;6.90;;;3.20;;
59416;SDS011;45222;52.458;20.914;2023-12-20T21:17:01;8.60;;;3.50;;
59416;SDS011;45222;52.458;20.914;2023-12-20T21:20:49;7.00;;;2.40;;
59416;SDS011;45222;52.458;20.914;2023-12-20T21:24:38;6.40;;;2.70;;
59416;SDS011;45222;52.458;20.914;2023-12-20T21:28:26;7.60;;;3.20;;
59416;SDS011;45222;52.458;20.914;2023-12-20T21:32:14;6.70;;;3.10;;
59416;SDS011;45222;52.458;20.914;2023-12-20T21:36:02;6.60;;;2.90;;
59416;SDS011;45222;52.458;20.914;2023-12-20T21:39:50;6.30;;;3.00;;
59416;SDS011;45222;52.458;20.914;2023-12-20T21:43:38;6.90;;;3.00;;
59416;SDS011;45222;52.458;20.914;2023-12-20T21:47:26;6.50;;;2.90;;
59416;SDS011;45222;52.458;20.914;2023-12-20T21:51:14;6.80;;;2.90;;
59416;SDS011;45222;52.458;20.914;2023-12-20T21:55:03;7.90;;;2.90;;
59416;SDS011;45222;52.458;20.914;2023-12-20T22:02:38;6.20;;;2.70;;
59416;SDS011;45222;52.458;20.914;2023-12-20T22:06:27;7.90;;;3.50;;
59416;SDS011;45222;52.458;20.914;2023-12-20T22:10:16;8.40;;;3.70;;
59416;SDS011;45222;52.458;20.914;2023-12-20T22:14:04;8.50;;;3.70;;
59416;SDS011;45222;52.458;20.914;2023-12-20T22:17:52;7.20;;;3.40;;
59416;SDS011;45222;52.458;20.914;2023-12-20T22:21:39;9.80;;;3.50;;
59416;SDS011;45222;52.458;20.914;2023-12-20T22:25:27;8.30;;;4.00;;
59416;SDS011;45222;52.458;20.914;2023-12-20T22:29:15;7.60;;;3.60;;
59416;SDS011;45222;52.458;20.914;2023-12-20T22:33:03;9.00;;;4.30;;
59416;SDS011;45222;52.458;20.914;2023-12-20T22:36:51;8.60;;;3.90;;
59416;SDS011;45222;52.458;20.914;2023-12-20T22:40:39;8.30;;;4.00;;
59416;SDS011;45222;52.458;20.914;2023-12-20T22:44:27;9.50;;;4.40;;
59416;SDS011;45222;52.458;20.914;2023-12-20T22:48:15;9.80;;;4.20;;
59416;SDS011;45222;52.458;20.914;2023-12-20T22:52:03;9.40;;;3.90;;
59416;SDS011;45222;52.458;20.914;2023-12-20T22:55:52;10.80;;;4.90;;